RYR412E EGKK-EGPH
Flight info
| Callsign | RYR412E |
|---|---|
| Flight time | 0h 59m |
| Altitude | 38000 |
| Route | LAM L10 BPK UN601 RIBEL DCT INPIP |
| Aircraft | B738/M-SDE2E3FGHIRWXY/LB1 |
Departure
| Time | 2026-04-23 20:46 |
|---|---|
| Airport | London Gatwick Airport (EGKK) |
Arrival
| Time | 2026-04-23 21:46 |
|---|---|
| Airport | Edinburgh Airport (EGPH) |
| Time | Latitude | Longitude | Altitude | Speed | Heading |
|---|---|---|---|---|---|
| 2026-04-23 20:11 | 51.15488 | -0.16447 | 204 ft | 0 kts | 76° |
| 2026-04-23 20:27 | 51.15482 | -0.16479 | 216 ft | 4 kts | 64° |
| 2026-04-23 20:27 | 51.15468 | -0.16510 | 215 ft | 4 kts | 33° |
| 2026-04-23 20:28 | 51.15448 | -0.16519 | 216 ft | 2 kts | 348° |
| 2026-04-23 20:28 | 51.15447 | -0.16519 | 216 ft | 1 kts | 348° |
| 2026-04-23 20:31 | 51.15451 | -0.16521 | 216 ft | 2 kts | 343° |
| 2026-04-23 20:31 | 51.15462 | -0.16550 | 209 ft | 5 kts | 282° |
| 2026-04-23 20:32 | 51.15454 | -0.16632 | 206 ft | 11 kts | 259° |
| 2026-04-23 20:32 | 51.15455 | -0.16778 | 207 ft | 15 kts | 278° |
| 2026-04-23 20:32 | 51.15443 | -0.16878 | 210 ft | 9 kts | 257° |
| 2026-04-23 20:32 | 51.15429 | -0.16976 | 209 ft | 9 kts | 257° |
| 2026-04-23 20:33 | 51.15416 | -0.17071 | 210 ft | 9 kts | 257° |
| 2026-04-23 20:33 | 51.15397 | -0.17159 | 211 ft | 8 kts | 240° |
| 2026-04-23 20:33 | 51.15379 | -0.17248 | 206 ft | 8 kts | 254° |
| 2026-04-23 20:33 | 51.15363 | -0.17323 | 210 ft | 6 kts | 252° |
| 2026-04-23 20:34 | 51.15334 | -0.17369 | 208 ft | 6 kts | 199° |
| 2026-04-23 20:34 | 51.15303 | -0.17414 | 209 ft | 7 kts | 249° |
| 2026-04-23 20:34 | 51.15296 | -0.17486 | 204 ft | 7 kts | 262° |
| 2026-04-23 20:34 | 51.15287 | -0.17556 | 213 ft | 6 kts | 259° |
| 2026-04-23 20:35 | 51.15279 | -0.17625 | 204 ft | 6 kts | 259° |
| 2026-04-23 20:35 | 51.15270 | -0.17693 | 209 ft | 6 kts | 256° |
| 2026-04-23 20:35 | 51.15259 | -0.17759 | 209 ft | 6 kts | 256° |
| 2026-04-23 20:35 | 51.15249 | -0.17824 | 204 ft | 6 kts | 256° |
| 2026-04-23 20:36 | 51.15240 | -0.17887 | 209 ft | 6 kts | 259° |
| 2026-04-23 20:36 | 51.15233 | -0.17952 | 210 ft | 6 kts | 259° |
| 2026-04-23 20:36 | 51.15223 | -0.18019 | 210 ft | 6 kts | 258° |
| 2026-04-23 20:36 | 51.15214 | -0.18090 | 206 ft | 7 kts | 258° |
| 2026-04-23 20:37 | 51.15204 | -0.18161 | 204 ft | 6 kts | 258° |
| 2026-04-23 20:37 | 51.15195 | -0.18230 | 206 ft | 6 kts | 258° |
| 2026-04-23 20:37 | 51.15186 | -0.18298 | 213 ft | 6 kts | 258° |
| 2026-04-23 20:37 | 51.15177 | -0.18367 | 204 ft | 6 kts | 263° |
| 2026-04-23 20:38 | 51.15171 | -0.18438 | 212 ft | 6 kts | 260° |
| 2026-04-23 20:38 | 51.15163 | -0.18507 | 211 ft | 6 kts | 258° |
| 2026-04-23 20:38 | 51.15153 | -0.18575 | 208 ft | 6 kts | 257° |
| 2026-04-23 20:38 | 51.15143 | -0.18643 | 210 ft | 6 kts | 257° |
| 2026-04-23 20:39 | 51.15133 | -0.18711 | 204 ft | 6 kts | 257° |
| 2026-04-23 20:39 | 51.15124 | -0.18779 | 209 ft | 6 kts | 259° |
| 2026-04-23 20:39 | 51.15116 | -0.18846 | 211 ft | 6 kts | 258° |
| 2026-04-23 20:39 | 51.15107 | -0.18912 | 206 ft | 6 kts | 258° |
| 2026-04-23 20:40 | 51.15099 | -0.18978 | 209 ft | 6 kts | 258° |
| 2026-04-23 20:40 | 51.15089 | -0.19042 | 208 ft | 6 kts | 256° |
| 2026-04-23 20:40 | 51.15080 | -0.19106 | 208 ft | 6 kts | 257° |
| 2026-04-23 20:40 | 51.15071 | -0.19170 | 210 ft | 6 kts | 257° |
| 2026-04-23 20:41 | 51.15062 | -0.19234 | 204 ft | 6 kts | 257° |
| 2026-04-23 20:41 | 51.15053 | -0.19304 | 206 ft | 7 kts | 257° |
| 2026-04-23 20:41 | 51.15040 | -0.19392 | 212 ft | 9 kts | 257° |
| 2026-04-23 20:41 | 51.15024 | -0.19506 | 209 ft | 12 kts | 257° |
| 2026-04-23 20:42 | 51.15005 | -0.19643 | 204 ft | 14 kts | 258° |
| 2026-04-23 20:42 | 51.14985 | -0.19800 | 210 ft | 15 kts | 257° |
| 2026-04-23 20:42 | 51.14959 | -0.19977 | 204 ft | 17 kts | 257° |
| 2026-04-23 20:42 | 51.14933 | -0.20175 | 208 ft | 19 kts | 258° |
| 2026-04-23 20:43 | 51.14904 | -0.20384 | 204 ft | 19 kts | 257° |
| 2026-04-23 20:43 | 51.14876 | -0.20585 | 209 ft | 18 kts | 257° |
| 2026-04-23 20:43 | 51.14849 | -0.20779 | 204 ft | 18 kts | 258° |
| 2026-04-23 20:43 | 51.14822 | -0.20967 | 207 ft | 17 kts | 257° |
| 2026-04-23 20:44 | 51.14800 | -0.21124 | 204 ft | 12 kts | 256° |
| 2026-04-23 20:44 | 51.14774 | -0.21250 | 204 ft | 12 kts | 257° |
| 2026-04-23 20:44 | 51.14746 | -0.21375 | 207 ft | 12 kts | 227° |
| 2026-04-23 20:44 | 51.14671 | -0.21377 | 206 ft | 12 kts | 137° |
| 2026-04-23 20:45 | 51.14592 | -0.21319 | 214 ft | 15 kts | 165° |
| 2026-04-23 20:45 | 51.14521 | -0.21191 | 211 ft | 18 kts | 98° |
| 2026-04-23 20:45 | 51.14554 | -0.20934 | 216 ft | 37 kts | 78° |
| 2026-04-23 20:45 | 51.14665 | -0.20134 | 211 ft | 109 kts | 77° |
| 2026-04-23 20:46 | 51.14868 | -0.18653 | 341 ft | 155 kts | 77° |
| 2026-04-23 20:46 | 51.15095 | -0.16904 | 1103 ft | 166 kts | 77° |
| 2026-04-23 20:46 | 51.15368 | -0.15082 | 2003 ft | 175 kts | 76° |
| 2026-04-23 20:46 | 51.15728 | -0.13224 | 2924 ft | 171 kts | 72° |
| 2026-04-23 20:47 | 51.16040 | -0.11398 | 3732 ft | 182 kts | 80° |
| 2026-04-23 20:47 | 51.16291 | -0.09264 | 3964 ft | 208 kts | 81° |
| 2026-04-23 20:47 | 51.16630 | -0.06918 | 4381 ft | 224 kts | 67° |
| 2026-04-23 20:47 | 51.17519 | -0.04822 | 4937 ft | 230 kts | 54° |
| 2026-04-23 20:48 | 51.18509 | -0.02767 | 5005 ft | 236 kts | 55° |
| 2026-04-23 20:48 | 51.19498 | -0.00710 | 4982 ft | 236 kts | 54° |
| 2026-04-23 20:48 | 51.20493 | 0.01347 | 5017 ft | 232 kts | 55° |
| 2026-04-23 20:48 | 51.21480 | 0.03396 | 5040 ft | 234 kts | 55° |
| 2026-04-23 20:49 | 51.22478 | 0.05470 | 5028 ft | 237 kts | 54° |
| 2026-04-23 20:49 | 51.23612 | 0.07509 | 5013 ft | 257 kts | 38° |
| 2026-04-23 20:49 | 51.25319 | 0.08458 | 5057 ft | 266 kts | 11° |
| 2026-04-23 20:49 | 51.27158 | 0.08776 | 5045 ft | 269 kts | 9° |
| 2026-04-23 20:50 | 51.29032 | 0.09059 | 5033 ft | 270 kts | 9° |
| 2026-04-23 20:50 | 51.30905 | 0.09342 | 5014 ft | 268 kts | 9° |
| 2026-04-23 20:50 | 51.32733 | 0.09624 | 5034 ft | 264 kts | 9° |
| 2026-04-23 20:50 | 51.34568 | 0.09920 | 5043 ft | 265 kts | 9° |
| 2026-04-23 20:51 | 51.36409 | 0.10231 | 5027 ft | 265 kts | 9° |
| 2026-04-23 20:51 | 51.38247 | 0.10544 | 5025 ft | 264 kts | 9° |
| 2026-04-23 20:51 | 51.40083 | 0.10858 | 5030 ft | 265 kts | 9° |
| 2026-04-23 20:51 | 51.41907 | 0.10691 | 5020 ft | 274 kts | 343° |
| 2026-04-23 20:52 | 51.43661 | 0.09394 | 5497 ft | 279 kts | 336° |
| 2026-04-23 20:52 | 51.45396 | 0.07970 | 6438 ft | 280 kts | 335° |
| 2026-04-23 20:52 | 51.47135 | 0.06535 | 7325 ft | 281 kts | 335° |
| 2026-04-23 20:52 | 51.48890 | 0.05100 | 8131 ft | 284 kts | 336° |
| 2026-04-23 20:53 | 51.50650 | 0.03674 | 8929 ft | 288 kts | 336° |
| 2026-04-23 20:53 | 51.52453 | 0.02225 | 9744 ft | 291 kts | 336° |
| 2026-04-23 20:53 | 51.54279 | 0.00765 | 10545 ft | 295 kts | 336° |
| 2026-04-23 20:53 | 51.56131 | -0.00711 | 11273 ft | 298 kts | 336° |
| 2026-04-23 20:54 | 51.57370 | -0.01697 | 11768 ft | 301 kts | 337° |
| 2026-04-23 20:54 | 51.59269 | -0.03205 | 12512 ft | 305 kts | 337° |
| 2026-04-23 20:54 | 51.61233 | -0.04762 | 12830 ft | 327 kts | 337° |
| 2026-04-23 20:54 | 51.63354 | -0.06440 | 13019 ft | 351 kts | 336° |
| 2026-04-23 20:55 | 51.65602 | -0.08220 | 13457 ft | 365 kts | 336° |
| 2026-04-23 20:55 | 51.67898 | -0.10047 | 14185 ft | 370 kts | 336° |
| 2026-04-23 20:55 | 51.70222 | -0.11905 | 14940 ft | 373 kts | 336° |
| 2026-04-23 20:55 | 51.72536 | -0.13754 | 15673 ft | 377 kts | 336° |
| 2026-04-23 20:56 | 51.74912 | -0.15651 | 16408 ft | 381 kts | 335° |
| 2026-04-23 20:56 | 51.77298 | -0.17560 | 17117 ft | 385 kts | 335° |
| 2026-04-23 20:56 | 51.79717 | -0.19495 | 17839 ft | 389 kts | 335° |
| 2026-04-23 20:56 | 51.82155 | -0.21448 | 18499 ft | 394 kts | 334° |
| 2026-04-23 20:57 | 51.84634 | -0.23436 | 19104 ft | 399 kts | 334° |
| 2026-04-23 20:57 | 51.87130 | -0.25440 | 19683 ft | 403 kts | 334° |
| 2026-04-23 20:57 | 51.89635 | -0.27453 | 20238 ft | 408 kts | 334° |
| 2026-04-23 20:57 | 51.92238 | -0.29548 | 20820 ft | 413 kts | 334° |
| 2026-04-23 20:58 | 51.94786 | -0.31602 | 21359 ft | 417 kts | 333° |
| 2026-04-23 20:58 | 51.97400 | -0.33712 | 21900 ft | 422 kts | 333° |
| 2026-04-23 20:58 | 52.00051 | -0.35853 | 22433 ft | 427 kts | 333° |
| 2026-04-23 20:58 | 52.02694 | -0.37991 | 22951 ft | 431 kts | 333° |
| 2026-04-23 20:59 | 52.05397 | -0.40181 | 23469 ft | 436 kts | 333° |
| 2026-04-23 20:59 | 52.08134 | -0.42402 | 23977 ft | 440 kts | 332° |
| 2026-04-23 20:59 | 52.10838 | -0.44806 | 24397 ft | 444 kts | 328° |
| 2026-04-23 20:59 | 52.13482 | -0.47387 | 24822 ft | 448 kts | 327° |
| 2026-04-23 21:00 | 52.16137 | -0.50048 | 25258 ft | 451 kts | 327° |
| 2026-04-23 21:00 | 52.18836 | -0.52727 | 25689 ft | 454 kts | 327° |
| 2026-04-23 21:00 | 52.21555 | -0.55390 | 26101 ft | 458 kts | 327° |
| 2026-04-23 21:00 | 52.24314 | -0.58074 | 26517 ft | 461 kts | 328° |
| 2026-04-23 21:01 | 52.27049 | -0.60737 | 26928 ft | 464 kts | 327° |
| 2026-04-23 21:01 | 52.29835 | -0.63457 | 27328 ft | 466 kts | 328° |
| 2026-04-23 21:01 | 52.32637 | -0.66197 | 27746 ft | 469 kts | 327° |
| 2026-04-23 21:01 | 52.35445 | -0.68950 | 28140 ft | 472 kts | 327° |
| 2026-04-23 21:02 | 52.38275 | -0.71729 | 28525 ft | 475 kts | 327° |
| 2026-04-23 21:02 | 52.41084 | -0.74491 | 28892 ft | 477 kts | 328° |
| 2026-04-23 21:02 | 52.43948 | -0.77312 | 29273 ft | 480 kts | 328° |
| 2026-04-23 21:02 | 52.46817 | -0.80142 | 29648 ft | 482 kts | 328° |
| 2026-04-23 21:03 | 52.49698 | -0.82989 | 29999 ft | 484 kts | 328° |
| 2026-04-23 21:03 | 52.52596 | -0.85856 | 30350 ft | 486 kts | 328° |
| 2026-04-23 21:03 | 52.55496 | -0.88731 | 30657 ft | 488 kts | 328° |
| 2026-04-23 21:03 | 52.58406 | -0.91618 | 30990 ft | 489 kts | 328° |
| 2026-04-23 21:04 | 52.61311 | -0.94505 | 31409 ft | 485 kts | 328° |
| 2026-04-23 21:04 | 52.64180 | -0.97351 | 31955 ft | 480 kts | 328° |
| 2026-04-23 21:04 | 52.66995 | -1.00139 | 32433 ft | 477 kts | 328° |
| 2026-04-23 21:04 | 52.69834 | -1.02954 | 32925 ft | 475 kts | 328° |
| 2026-04-23 21:05 | 52.72671 | -1.05773 | 33315 ft | 474 kts | 328° |
| 2026-04-23 21:05 | 52.75494 | -1.08587 | 33743 ft | 472 kts | 328° |
| 2026-04-23 21:05 | 52.78289 | -1.11391 | 34195 ft | 469 kts | 328° |
| 2026-04-23 21:05 | 52.81072 | -1.14193 | 34597 ft | 467 kts | 328° |
| 2026-04-23 21:06 | 52.83835 | -1.16981 | 34925 ft | 465 kts | 328° |
| 2026-04-23 21:06 | 52.86602 | -1.19777 | 35245 ft | 463 kts | 328° |
| 2026-04-23 21:06 | 52.89350 | -1.22555 | 35582 ft | 462 kts | 328° |
| 2026-04-23 21:06 | 52.92088 | -1.25326 | 35870 ft | 461 kts | 328° |
| 2026-04-23 21:07 | 52.94785 | -1.28058 | 36142 ft | 460 kts | 328° |
| 2026-04-23 21:07 | 52.97517 | -1.30831 | 36433 ft | 459 kts | 328° |
| 2026-04-23 21:07 | 53.00242 | -1.33594 | 36725 ft | 458 kts | 328° |
| 2026-04-23 21:07 | 53.02973 | -1.36365 | 36994 ft | 457 kts | 328° |
| 2026-04-23 21:08 | 53.05660 | -1.39095 | 37246 ft | 457 kts | 328° |
| 2026-04-23 21:08 | 53.08372 | -1.41854 | 37569 ft | 455 kts | 328° |
| 2026-04-23 21:08 | 53.11068 | -1.44603 | 37877 ft | 453 kts | 328° |
| 2026-04-23 21:08 | 53.13754 | -1.47346 | 38149 ft | 452 kts | 328° |
| 2026-04-23 21:09 | 53.16431 | -1.50084 | 38395 ft | 450 kts | 328° |
| 2026-04-23 21:09 | 53.19101 | -1.52819 | 38439 ft | 453 kts | 328° |
| 2026-04-23 21:09 | 53.24473 | -1.58334 | 38449 ft | 452 kts | 328° |
| 2026-04-23 21:10 | 53.29815 | -1.63833 | 38456 ft | 448 kts | 328° |
| 2026-04-23 21:10 | 53.35075 | -1.69257 | 38455 ft | 446 kts | 328° |
| 2026-04-23 21:11 | 53.40345 | -1.74705 | 38453 ft | 444 kts | 328° |
| 2026-04-23 21:11 | 53.45596 | -1.80149 | 38451 ft | 442 kts | 328° |
| 2026-04-23 21:12 | 53.50808 | -1.85578 | 38446 ft | 442 kts | 328° |
| 2026-04-23 21:12 | 53.56036 | -1.91050 | 38446 ft | 443 kts | 328° |
| 2026-04-23 21:13 | 53.61247 | -1.96512 | 38454 ft | 443 kts | 328° |
| 2026-04-23 21:13 | 53.66512 | -2.02018 | 38453 ft | 444 kts | 328° |
| 2026-04-23 21:14 | 53.71734 | -2.07493 | 38450 ft | 444 kts | 328° |
| 2026-04-23 21:14 | 53.77191 | -2.12385 | 38458 ft | 443 kts | 339° |
| 2026-04-23 21:15 | 53.82946 | -2.16200 | 38453 ft | 443 kts | 339° |
| 2026-04-23 21:15 | 53.88628 | -2.20087 | 38446 ft | 443 kts | 338° |
| 2026-04-23 21:16 | 53.94333 | -2.24003 | 38448 ft | 442 kts | 338° |
| 2026-04-23 21:16 | 54.00039 | -2.27922 | 38447 ft | 441 kts | 338° |
| 2026-04-23 21:17 | 54.05730 | -2.31842 | 38442 ft | 440 kts | 338° |
| 2026-04-23 21:17 | 54.11361 | -2.35730 | 38449 ft | 439 kts | 338° |
| 2026-04-23 21:18 | 54.17021 | -2.39649 | 38450 ft | 438 kts | 338° |
| 2026-04-23 21:18 | 54.22685 | -2.43582 | 38448 ft | 438 kts | 338° |
| 2026-04-23 21:19 | 54.25520 | -2.45556 | 38067 ft | 444 kts | 338° |
| 2026-04-23 21:19 | 54.28380 | -2.47549 | 37570 ft | 442 kts | 338° |
| 2026-04-23 21:19 | 54.31188 | -2.49511 | 37020 ft | 440 kts | 339° |
| 2026-04-23 21:19 | 54.34018 | -2.51490 | 36414 ft | 439 kts | 339° |
| 2026-04-23 21:20 | 54.36846 | -2.53471 | 35772 ft | 439 kts | 339° |
| 2026-04-23 21:20 | 54.39676 | -2.55455 | 35124 ft | 439 kts | 339° |
| 2026-04-23 21:20 | 54.42508 | -2.57445 | 34473 ft | 439 kts | 339° |
| 2026-04-23 21:20 | 54.45328 | -2.59429 | 33937 ft | 435 kts | 339° |
| 2026-04-23 21:21 | 54.48092 | -2.61376 | 33446 ft | 430 kts | 339° |
| 2026-04-23 21:21 | 54.50852 | -2.63325 | 32971 ft | 425 kts | 339° |
| 2026-04-23 21:21 | 54.53578 | -2.65251 | 32510 ft | 420 kts | 339° |
| 2026-04-23 21:21 | 54.56281 | -2.67164 | 32032 ft | 417 kts | 339° |
| 2026-04-23 21:22 | 54.58922 | -2.69035 | 31586 ft | 413 kts | 339° |
| 2026-04-23 21:22 | 54.61566 | -2.70911 | 31137 ft | 409 kts | 339° |
| 2026-04-23 21:22 | 54.64196 | -2.72780 | 30695 ft | 406 kts | 339° |
| 2026-04-23 21:22 | 54.66807 | -2.74638 | 30199 ft | 402 kts | 339° |
| 2026-04-23 21:23 | 54.69380 | -2.76471 | 29733 ft | 398 kts | 339° |
| 2026-04-23 21:23 | 54.71895 | -2.78266 | 29266 ft | 394 kts | 339° |
| 2026-04-23 21:23 | 54.74419 | -2.80069 | 28802 ft | 389 kts | 339° |
| 2026-04-23 21:23 | 54.76918 | -2.81857 | 28352 ft | 386 kts | 339° |
| 2026-04-23 21:24 | 54.79396 | -2.83633 | 27912 ft | 382 kts | 339° |
| 2026-04-23 21:24 | 54.81816 | -2.85368 | 27462 ft | 380 kts | 339° |
| 2026-04-23 21:24 | 54.84254 | -2.87119 | 27012 ft | 377 kts | 338° |
| 2026-04-23 21:24 | 54.86683 | -2.88865 | 26570 ft | 375 kts | 338° |
| 2026-04-23 21:25 | 54.89095 | -2.90603 | 26083 ft | 375 kts | 338° |
| 2026-04-23 21:25 | 54.91516 | -2.92355 | 25572 ft | 377 kts | 338° |
| 2026-04-23 21:25 | 54.93931 | -2.94106 | 25065 ft | 383 kts | 338° |
| 2026-04-23 21:25 | 54.96405 | -2.95902 | 24537 ft | 387 kts | 338° |
| 2026-04-23 21:26 | 54.98907 | -2.97721 | 23979 ft | 389 kts | 338° |
| 2026-04-23 21:26 | 55.01408 | -2.99542 | 23366 ft | 390 kts | 338° |
| 2026-04-23 21:26 | 55.03880 | -3.01344 | 22793 ft | 388 kts | 338° |
| 2026-04-23 21:26 | 55.06371 | -3.03162 | 22248 ft | 386 kts | 338° |
| 2026-04-23 21:27 | 55.08856 | -3.04979 | 21701 ft | 384 kts | 338° |
| 2026-04-23 21:27 | 55.11304 | -3.06769 | 21185 ft | 378 kts | 337° |
| 2026-04-23 21:27 | 55.13714 | -3.08535 | 20656 ft | 371 kts | 337° |
| 2026-04-23 21:27 | 55.16079 | -3.10270 | 20116 ft | 366 kts | 337° |
| 2026-04-23 21:28 | 55.18416 | -3.11983 | 19560 ft | 362 kts | 337° |
| 2026-04-23 21:28 | 55.20700 | -3.13658 | 19032 ft | 358 kts | 337° |
| 2026-04-23 21:28 | 55.23002 | -3.15348 | 18453 ft | 355 kts | 336° |
| 2026-04-23 21:28 | 55.25267 | -3.17014 | 17856 ft | 351 kts | 336° |
| 2026-04-23 21:29 | 55.27513 | -3.18668 | 17301 ft | 347 kts | 336° |
| 2026-04-23 21:29 | 55.29778 | -3.20092 | 16723 ft | 344 kts | 348° |
| 2026-04-23 21:29 | 55.32124 | -3.20231 | 16258 ft | 338 kts | 3° |
| 2026-04-23 21:29 | 55.34450 | -3.19889 | 15730 ft | 332 kts | 5° |
| 2026-04-23 21:30 | 55.36736 | -3.19488 | 15222 ft | 326 kts | 5° |
| 2026-04-23 21:30 | 55.38958 | -3.19095 | 14735 ft | 321 kts | 5° |
| 2026-04-23 21:30 | 55.41170 | -3.18714 | 14249 ft | 316 kts | 4° |
| 2026-04-23 21:30 | 55.43355 | -3.18350 | 13711 ft | 312 kts | 4° |
| 2026-04-23 21:31 | 55.45499 | -3.18002 | 13214 ft | 307 kts | 4° |
| 2026-04-23 21:31 | 55.47592 | -3.17667 | 12734 ft | 303 kts | 4° |
| 2026-04-23 21:31 | 55.49687 | -3.17336 | 12271 ft | 300 kts | 4° |
| 2026-04-23 21:31 | 55.51761 | -3.17008 | 11807 ft | 298 kts | 4° |
| 2026-04-23 21:32 | 55.53821 | -3.16683 | 11346 ft | 296 kts | 4° |
| 2026-04-23 21:32 | 55.55869 | -3.16360 | 10893 ft | 293 kts | 4° |
| 2026-04-23 21:32 | 55.57899 | -3.16041 | 10448 ft | 297 kts | 4° |
| 2026-04-23 21:32 | 55.59945 | -3.15717 | 10365 ft | 288 kts | 4° |
| 2026-04-23 21:33 | 55.61949 | -3.15402 | 9618 ft | 294 kts | 4° |
| 2026-04-23 21:33 | 55.63992 | -3.15079 | 9051 ft | 293 kts | 4° |
| 2026-04-23 21:33 | 55.66012 | -3.15085 | 8553 ft | 288 kts | 346° |
| 2026-04-23 21:33 | 55.67720 | -3.16423 | 8144 ft | 280 kts | 321° |
| 2026-04-23 21:34 | 55.68924 | -3.19037 | 7888 ft | 271 kts | 292° |
| 2026-04-23 21:34 | 55.69445 | -3.22212 | 7671 ft | 266 kts | 281° |
| 2026-04-23 21:34 | 55.69794 | -3.25374 | 7600 ft | 255 kts | 279° |
| 2026-04-23 21:34 | 55.70112 | -3.28418 | 7452 ft | 244 kts | 279° |
| 2026-04-23 21:35 | 55.70402 | -3.31239 | 7365 ft | 227 kts | 279° |
| 2026-04-23 21:35 | 55.70678 | -3.33934 | 7099 ft | 217 kts | 279° |
| 2026-04-23 21:35 | 55.70941 | -3.36508 | 6854 ft | 207 kts | 279° |
| 2026-04-23 21:35 | 55.71195 | -3.39001 | 6619 ft | 202 kts | 279° |
| 2026-04-23 21:36 | 55.71698 | -3.43896 | 6068 ft | 205 kts | 279° |
| 2026-04-23 21:36 | 55.71955 | -3.46384 | 5802 ft | 206 kts | 279° |
| 2026-04-23 21:36 | 55.72215 | -3.48892 | 5531 ft | 207 kts | 279° |
| 2026-04-23 21:37 | 55.72476 | -3.51407 | 5259 ft | 205 kts | 279° |
| 2026-04-23 21:37 | 55.72737 | -3.53898 | 4980 ft | 204 kts | 279° |
| 2026-04-23 21:37 | 55.72992 | -3.56338 | 4718 ft | 202 kts | 279° |
| 2026-04-23 21:37 | 55.73244 | -3.58769 | 4448 ft | 199 kts | 279° |
| 2026-04-23 21:38 | 55.73494 | -3.61184 | 4196 ft | 197 kts | 279° |
| 2026-04-23 21:38 | 55.73802 | -3.63564 | 4039 ft | 200 kts | 294° |
| 2026-04-23 21:38 | 55.74673 | -3.65469 | 4020 ft | 200 kts | 317° |
| 2026-04-23 21:38 | 55.75714 | -3.67077 | 4002 ft | 200 kts | 319° |
| 2026-04-23 21:39 | 55.76828 | -3.68551 | 3986 ft | 200 kts | 334° |
| 2026-04-23 21:39 | 55.78113 | -3.69499 | 4008 ft | 202 kts | 339° |
| 2026-04-23 21:39 | 55.79423 | -3.70389 | 3990 ft | 199 kts | 339° |
| 2026-04-23 21:39 | 55.80714 | -3.71256 | 3990 ft | 196 kts | 339° |
| 2026-04-23 21:40 | 55.82012 | -3.71757 | 3971 ft | 192 kts | 9° |
| 2026-04-23 21:40 | 55.83134 | -3.70624 | 4033 ft | 189 kts | 49° |
| 2026-04-23 21:40 | 55.83996 | -3.68803 | 4008 ft | 194 kts | 52° |
| 2026-04-23 21:40 | 55.84855 | -3.66886 | 3790 ft | 199 kts | 53° |
| 2026-04-23 21:41 | 55.85388 | -3.65571 | 3622 ft | 196 kts | 57° |
| 2026-04-23 21:41 | 55.86118 | -3.63545 | 3361 ft | 192 kts | 59° |
| 2026-04-23 21:41 | 55.87012 | -3.60911 | 3028 ft | 181 kts | 60° |
| 2026-04-23 21:41 | 55.87633 | -3.59067 | 2835 ft | 164 kts | 60° |
| 2026-04-23 21:42 | 55.88196 | -3.57393 | 2576 ft | 150 kts | 60° |
| 2026-04-23 21:42 | 55.88547 | -3.56350 | 2442 ft | 147 kts | 60° |
| 2026-04-23 21:42 | 55.89075 | -3.54781 | 2243 ft | 146 kts | 60° |
| 2026-04-23 21:42 | 55.89599 | -3.53233 | 2042 ft | 144 kts | 60° |
| 2026-04-23 21:43 | 55.90107 | -3.51720 | 1845 ft | 142 kts | 60° |
| 2026-04-23 21:43 | 55.90610 | -3.50204 | 1658 ft | 141 kts | 60° |
| 2026-04-23 21:43 | 55.91118 | -3.48701 | 1503 ft | 140 kts | 60° |
| 2026-04-23 21:43 | 55.91614 | -3.47195 | 1317 ft | 142 kts | 60° |
| 2026-04-23 21:44 | 55.92114 | -3.45677 | 1031 ft | 140 kts | 59° |
| 2026-04-23 21:44 | 55.92607 | -3.44233 | 830 ft | 136 kts | 58° |
| 2026-04-23 21:44 | 55.93115 | -3.42787 | 653 ft | 136 kts | 59° |
| 2026-04-23 21:44 | 55.93606 | -3.41342 | 492 ft | 140 kts | 59° |
| 2026-04-23 21:45 | 55.94113 | -3.39854 | 282 ft | 139 kts | 58° |
| 2026-04-23 21:45 | 55.94609 | -3.38409 | 122 ft | 133 kts | 59° |
| 2026-04-23 21:45 | 55.95037 | -3.37141 | 105 ft | 99 kts | 58° |
| 2026-04-23 21:45 | 55.95317 | -3.36316 | 104 ft | 56 kts | 59° |
| 2026-04-23 21:46 | 55.95475 | -3.35850 | 106 ft | 31 kts | 59° |
| 2026-04-23 21:46 | 55.95546 | -3.35639 | 107 ft | 15 kts | 59° |
| 2026-04-23 21:46 | 55.95555 | -3.35509 | 105 ft | 10 kts | 125° |
| 2026-04-23 21:46 | 55.95500 | -3.35442 | 106 ft | 10 kts | 151° |
| 2026-04-23 21:47 | 55.95438 | -3.35415 | 106 ft | 9 kts | 198° |
| 2026-04-23 21:47 | 55.95397 | -3.35503 | 105 ft | 9 kts | 240° |
| 2026-04-23 21:47 | 55.95366 | -3.35598 | 106 ft | 9 kts | 240° |
| 2026-04-23 21:47 | 55.95349 | -3.35653 | 106 ft | 0 kts | 239° |
| 2026-04-23 21:49 | 55.95346 | -3.35660 | 106 ft | 3 kts | 239° |
| 2026-04-23 21:49 | 55.95323 | -3.35729 | 105 ft | 10 kts | 239° |
| 2026-04-23 21:49 | 55.95279 | -3.35855 | 105 ft | 14 kts | 238° |
| 2026-04-23 21:50 | 55.95228 | -3.35982 | 106 ft | 12 kts | 211° |
| 2026-04-23 21:50 | 55.95156 | -3.35935 | 106 ft | 11 kts | 148° |
| 2026-04-23 21:50 | 55.95109 | -3.35828 | 106 ft | 11 kts | 115° |
| 2026-04-23 21:50 | 55.95047 | -3.35796 | 106 ft | 11 kts | 209° |
| 2026-04-23 21:51 | 55.94984 | -3.35862 | 106 ft | 10 kts | 195° |
| 2026-04-23 21:51 | 55.94921 | -3.35819 | 106 ft | 10 kts | 124° |
| 2026-04-23 21:51 | 55.94887 | -3.35708 | 105 ft | 10 kts | 118° |
| 2026-04-23 21:51 | 55.94862 | -3.35641 | 106 ft | 4 kts | 141° |
| 2026-04-23 21:52 | 55.94833 | -3.35651 | 106 ft | 5 kts | 207° |
| 2026-04-23 21:52 | 55.94806 | -3.35678 | 106 ft | 1 kts | 209° |
| 2026-04-23 21:52 | 55.94798 | -3.35685 | 105 ft | 1 kts | 209° |
| 2026-04-23 21:52 | 55.94795 | -3.35688 | 104 ft | 0 kts | 209° |